createdAt,value
2019-01-29T00:07:35.158Z,992.64
2019-01-29T00:08:35.354Z,992.69
2019-01-29T00:09:34.043Z,992.72
2019-01-29T00:10:34.266Z,992.67
2019-01-29T00:11:34.071Z,992.72
2019-01-29T00:13:33.957Z,992.76
2019-01-29T00:14:34.833Z,992.76
2019-01-29T00:15:33.873Z,992.78
2019-01-29T00:16:33.848Z,992.84
2019-01-29T00:17:33.816Z,992.76
2019-01-29T00:18:33.815Z,992.77
2019-01-29T00:19:33.791Z,992.86
2019-01-29T00:20:33.761Z,992.86
2019-01-29T00:21:33.779Z,992.85
2019-01-29T00:22:33.781Z,992.89
2019-01-29T00:23:33.755Z,992.93
2019-01-29T00:24:33.731Z,992.91
2019-01-29T00:25:33.714Z,992.98
2019-01-29T00:26:33.741Z,992.98
2019-01-29T00:27:33.704Z,992.99
2019-01-29T00:28:33.701Z,992.99
2019-01-29T00:29:33.719Z,993.03
2019-01-29T00:30:33.682Z,993.09
2019-01-29T00:31:33.664Z,993.06
2019-01-29T00:32:33.678Z,993.07
2019-01-29T00:33:34.151Z,993.11
2019-01-29T00:34:33.634Z,993.10
2019-01-29T00:35:33.624Z,993.11
2019-01-29T00:36:33.598Z,993.09
2019-01-29T00:37:35.156Z,993.19
2019-01-29T00:38:33.568Z,993.13
2019-01-29T00:39:33.595Z,993.14
2019-01-29T00:40:33.577Z,993.20
2019-01-29T00:42:34.756Z,993.23
2019-01-29T00:43:33.533Z,993.23
2019-01-29T00:44:33.549Z,993.31
2019-01-29T00:46:34.662Z,993.22
2019-01-29T00:47:33.705Z,993.29
2019-01-29T00:48:33.737Z,993.27
2019-01-29T00:49:33.640Z,993.32
2019-01-29T00:50:33.633Z,993.34
2019-01-29T00:51:33.653Z,993.35
2019-01-29T00:52:41.680Z,993.37
2019-01-29T00:53:34.431Z,993.45
2019-01-29T00:54:33.419Z,993.48
2019-01-29T00:55:33.429Z,993.46
2019-01-29T00:56:33.673Z,993.52
2019-01-29T00:58:34.562Z,993.52
2019-01-29T00:59:54.349Z,993.54
2019-01-29T01:00:33.351Z,993.57
2019-01-29T01:01:33.345Z,993.57
2019-01-29T01:02:33.322Z,993.52
2019-01-29T01:03:33.353Z,993.58
2019-01-29T01:05:34.459Z,993.59
2019-01-29T01:06:33.289Z,993.67
2019-01-29T01:07:33.266Z,993.73
2019-01-29T01:09:34.425Z,993.72
2019-01-29T01:10:33.238Z,993.80
2019-01-29T01:11:33.224Z,993.82
2019-01-29T01:12:54.225Z,993.81
2019-01-29T01:13:33.199Z,993.76
2019-01-29T01:14:33.211Z,993.82
2019-01-29T01:15:33.194Z,993.92
2019-01-29T01:16:33.196Z,993.90
2019-01-29T01:18:34.169Z,993.92
2019-01-29T01:19:33.258Z,993.91
2019-01-29T01:20:33.133Z,993.96
2019-01-29T01:21:33.113Z,993.92
2019-01-29T01:22:33.102Z,993.96
2019-01-29T01:24:34.299Z,993.95
2019-01-29T01:25:33.310Z,993.95
2019-01-29T01:26:33.238Z,993.96
2019-01-29T01:27:33.223Z,994.02
2019-01-29T01:28:33.035Z,994.04
2019-01-29T01:29:33.167Z,993.96
2019-01-29T01:30:33.041Z,994.07
2019-01-29T01:31:33.033Z,994.05
2019-01-29T01:32:33.009Z,994.06
2019-01-29T01:33:33.011Z,994.08
2019-01-29T01:34:32.994Z,994.07
2019-01-29T01:35:32.984Z,994.12
2019-01-29T01:36:32.967Z,994.08
2019-01-29T01:37:32.947Z,994.08
2019-01-29T01:38:32.949Z,994.09
2019-01-29T01:39:32.925Z,994.08
2019-01-29T01:40:32.926Z,994.07
2019-01-29T01:41:32.926Z,994.18
2019-01-29T01:42:32.895Z,994.20
2019-01-29T01:43:32.889Z,994.19
2019-01-29T01:44:32.921Z,994.23
2019-01-29T01:45:32.978Z,994.20
2019-01-29T01:46:32.847Z,994.22
2019-01-29T01:47:32.858Z,994.30
2019-01-29T01:48:32.886Z,994.31
2019-01-29T01:49:32.839Z,994.23
2019-01-29T01:50:32.831Z,994.32
2019-01-29T01:51:32.835Z,994.36
2019-01-29T01:52:32.857Z,994.40
2019-01-29T01:53:32.773Z,994.35
2019-01-29T01:54:32.767Z,994.32
2019-01-29T01:55:32.805Z,994.41
2019-01-29T01:56:32.743Z,994.40
2019-01-29T01:57:32.731Z,994.50
2019-01-29T01:58:32.745Z,994.48
2019-01-29T01:59:32.705Z,994.55
2019-01-29T02:00:32.699Z,994.50
2019-01-29T02:01:32.709Z,994.57
2019-01-29T02:02:32.681Z,994.54
2019-01-29T02:03:32.663Z,994.65
2019-01-29T02:04:32.669Z,994.65
2019-01-29T02:05:32.642Z,994.65
2019-01-29T02:06:32.653Z,994.73
2019-01-29T02:07:32.625Z,994.73
2019-01-29T02:08:32.614Z,994.73
2019-01-29T02:09:32.607Z,994.75
2019-01-29T02:10:32.604Z,994.79
2019-01-29T02:11:32.595Z,994.77
2019-01-29T02:12:32.575Z,994.76
2019-01-29T02:13:32.564Z,994.77
2019-01-29T02:14:32.545Z,994.82
2019-01-29T02:15:32.546Z,994.88
2019-01-29T02:16:32.555Z,994.97
2019-01-29T02:17:32.543Z,994.89
2019-01-29T02:18:32.517Z,994.87
2019-01-29T02:19:32.497Z,995.00
2019-01-29T02:20:32.481Z,994.97
2019-01-29T02:21:32.505Z,994.99
2019-01-29T02:22:32.459Z,995.02
2019-01-29T02:23:32.455Z,995.12
2019-01-29T02:24:32.437Z,995.04
2019-01-29T02:25:32.470Z,995.09
2019-01-29T02:26:32.422Z,995.06
2019-01-29T02:27:32.427Z,995.08
2019-01-29T02:28:32.403Z,995.10
2019-01-29T02:29:32.393Z,995.15
2019-01-29T02:30:32.374Z,995.13
2019-01-29T02:31:32.382Z,995.17
2019-01-29T02:32:32.381Z,995.16
2019-01-29T02:33:32.343Z,995.24
2019-01-29T02:34:32.340Z,995.25
2019-01-29T02:35:32.327Z,995.21
2019-01-29T02:36:32.304Z,995.38
2019-01-29T02:37:32.322Z,995.32
2019-01-29T02:38:32.291Z,995.36
2019-01-29T02:39:32.290Z,995.34
2019-01-29T02:40:32.269Z,995.35
2019-01-29T02:41:32.263Z,995.28
2019-01-29T02:42:32.273Z,995.34
2019-01-29T02:43:32.228Z,995.27
2019-01-29T02:44:32.239Z,995.19
2019-01-29T02:45:32.235Z,995.34
2019-01-29T02:46:32.203Z,995.37
2019-01-29T02:47:32.213Z,995.41
2019-01-29T02:48:32.179Z,995.39
2019-01-29T02:49:32.179Z,995.43
2019-01-29T02:50:32.175Z,995.45
2019-01-29T02:51:32.181Z,995.50
2019-01-29T02:52:32.180Z,995.52
2019-01-29T02:53:32.128Z,995.60
2019-01-29T02:54:32.120Z,995.46
2019-01-29T02:55:32.108Z,995.57
2019-01-29T02:56:32.105Z,995.58
2019-01-29T02:57:32.109Z,995.50
2019-01-29T02:58:32.080Z,995.61
2019-01-29T02:59:32.061Z,995.58
2019-01-29T03:00:32.061Z,995.63
2019-01-29T03:01:32.037Z,995.58
2019-01-29T03:02:32.049Z,995.56
2019-01-29T03:03:32.025Z,995.62
2019-01-29T03:04:32.017Z,995.64
2019-01-29T03:05:32.009Z,995.66
2019-01-29T03:06:32.015Z,995.70
2019-01-29T03:07:32.047Z,995.71
2019-01-29T03:08:31.986Z,995.78
2019-01-29T03:09:31.993Z,995.81
2019-01-29T03:10:31.950Z,995.79
2019-01-29T03:11:31.965Z,995.79
2019-01-29T03:12:31.945Z,995.89
2019-01-29T03:13:31.920Z,995.81
2019-01-29T03:14:31.916Z,995.94
2019-01-29T03:15:31.905Z,995.96
2019-01-29T03:16:31.884Z,995.88
2019-01-29T03:17:31.943Z,995.98
2019-01-29T03:18:32.011Z,996.03
2019-01-29T03:19:31.870Z,995.99
2019-01-29T03:20:31.859Z,996.02
2019-01-29T03:21:31.869Z,996.03
2019-01-29T03:22:31.840Z,996.06
2019-01-29T03:23:31.898Z,996.11
2019-01-29T03:24:31.819Z,996.09
2019-01-29T03:25:31.805Z,996.05
2019-01-29T03:26:31.827Z,996.15
2019-01-29T03:27:31.777Z,996.16
2019-01-29T03:28:31.787Z,996.11
2019-01-29T03:29:31.946Z,996.16
2019-01-29T03:30:33.787Z,996.17
2019-01-29T03:31:31.747Z,996.18
2019-01-29T03:32:31.729Z,996.20
2019-01-29T03:33:31.747Z,996.21
2019-01-29T03:34:31.704Z,996.22
2019-01-29T03:35:31.692Z,996.26
2019-01-29T03:36:31.685Z,996.41
2019-01-29T03:37:31.666Z,996.31
2019-01-29T03:38:31.786Z,996.39
2019-01-29T03:39:31.693Z,996.37
2019-01-29T03:40:31.641Z,996.46
2019-01-29T03:41:31.675Z,996.43
2019-01-29T03:42:31.652Z,996.43
2019-01-29T03:43:31.771Z,996.50
2019-01-29T03:44:31.644Z,996.47
2019-01-29T03:45:31.648Z,996.44
2019-01-29T03:47:32.803Z,996.45
2019-01-29T03:48:31.582Z,996.43
2019-01-29T03:49:31.551Z,996.56
2019-01-29T03:50:31.530Z,996.56
2019-01-29T03:51:31.541Z,996.60
2019-01-29T03:52:31.514Z,996.60
2019-01-29T03:53:37.867Z,996.69
2019-01-29T03:54:32.512Z,996.58
2019-01-29T03:55:31.535Z,996.59
2019-01-29T03:56:31.515Z,996.55
2019-01-29T03:57:31.483Z,996.63
2019-01-29T03:58:31.480Z,996.66
2019-01-29T03:59:31.446Z,996.57
2019-01-29T04:00:31.478Z,996.69
2019-01-29T04:01:31.433Z,996.71
2019-01-29T04:02:31.413Z,996.65
2019-01-29T04:03:31.397Z,996.73
2019-01-29T04:04:31.425Z,996.72
2019-01-29T04:05:31.384Z,996.73
2019-01-29T04:06:31.362Z,996.72
2019-01-29T04:07:31.361Z,996.79
2019-01-29T04:08:31.353Z,996.76
2019-01-29T04:09:31.357Z,996.85
2019-01-29T04:10:31.319Z,996.81
2019-01-29T04:11:31.322Z,996.86
2019-01-29T04:12:31.301Z,996.93
2019-01-29T04:13:31.318Z,996.87
2019-01-29T04:14:31.315Z,996.89
2019-01-29T04:15:31.264Z,996.97
2019-01-29T04:16:31.278Z,996.94
2019-01-29T04:17:31.241Z,996.91
2019-01-29T04:18:31.239Z,997.00
2019-01-29T04:19:31.252Z,996.92
2019-01-29T04:20:31.213Z,996.96
2019-01-29T04:21:31.199Z,997.03
2019-01-29T04:22:31.198Z,997.03
2019-01-29T04:23:31.185Z,997.04
2019-01-29T04:24:31.201Z,997.12
2019-01-29T04:25:31.172Z,997.10
2019-01-29T04:26:31.181Z,997.13
2019-01-29T04:27:31.149Z,997.14
2019-01-29T04:28:31.137Z,997.15
2019-01-29T04:29:31.144Z,997.20
2019-01-29T04:30:31.121Z,997.26
2019-01-29T04:31:31.121Z,997.20
2019-01-29T04:32:31.097Z,997.21
2019-01-29T04:33:31.088Z,997.29
2019-01-29T04:34:31.084Z,997.26
2019-01-29T04:35:31.109Z,997.31
2019-01-29T04:36:31.058Z,997.30
2019-01-29T04:37:31.027Z,997.29
2019-01-29T04:38:31.023Z,997.29
2019-01-29T04:39:31.025Z,997.27
2019-01-29T04:40:31.049Z,997.29
2019-01-29T04:41:31.000Z,997.34
2019-01-29T04:42:30.995Z,997.33
2019-01-29T04:43:30.995Z,997.36
2019-01-29T04:44:30.956Z,997.32
2019-01-29T04:45:30.971Z,997.38
2019-01-29T04:46:30.932Z,997.36
2019-01-29T04:47:30.929Z,997.36
2019-01-29T04:48:30.928Z,997.38
2019-01-29T04:49:30.902Z,997.47
2019-01-29T04:50:30.907Z,997.54
2019-01-29T04:51:30.886Z,997.52
2019-01-29T04:52:30.877Z,997.51
2019-01-29T04:53:30.869Z,997.56
2019-01-29T04:54:30.864Z,997.48
2019-01-29T04:55:30.882Z,997.50
2019-01-29T04:56:30.826Z,997.52
2019-01-29T04:57:30.820Z,997.53
2019-01-29T04:58:30.805Z,997.55
2019-01-29T04:59:30.827Z,997.56
2019-01-29T05:00:30.815Z,997.53
2019-01-29T05:01:30.771Z,997.56
2019-01-29T05:02:30.782Z,997.60
2019-01-29T05:03:30.752Z,997.63
2019-01-29T05:04:30.744Z,997.64
2019-01-29T05:05:30.757Z,997.60
2019-01-29T05:06:30.725Z,997.69
2019-01-29T05:07:30.707Z,997.63
2019-01-29T05:08:30.765Z,997.58
2019-01-29T05:09:30.711Z,997.62
2019-01-29T05:10:30.693Z,997.65
2019-01-29T05:11:30.674Z,997.56
2019-01-29T05:12:30.656Z,997.70
2019-01-29T05:13:37.183Z,997.59
2019-01-29T05:14:30.643Z,997.68
2019-01-29T05:15:30.650Z,997.74
2019-01-29T05:16:30.622Z,997.72
2019-01-29T05:17:30.624Z,997.65
2019-01-29T05:18:32.054Z,997.73
2019-01-29T05:19:30.590Z,997.79
2019-01-29T05:20:30.602Z,997.76
2019-01-29T05:21:30.561Z,997.78
2019-01-29T05:22:30.563Z,997.76
2019-01-29T05:23:30.559Z,997.83
2019-01-29T05:24:30.529Z,997.80
2019-01-29T05:25:30.572Z,997.80
2019-01-29T05:26:30.515Z,997.87
2019-01-29T05:27:30.522Z,997.83
2019-01-29T05:28:30.506Z,997.94
2019-01-29T05:29:31.132Z,997.90
2019-01-29T05:30:30.465Z,997.98
2019-01-29T05:31:30.577Z,997.96
2019-01-29T05:32:30.465Z,997.95
2019-01-29T05:33:30.438Z,997.91
2019-01-29T05:34:30.439Z,997.98
2019-01-29T05:35:30.414Z,997.94
2019-01-29T05:36:30.420Z,998.03
2019-01-29T05:37:30.416Z,997.96
2019-01-29T05:38:30.402Z,997.93
2019-01-29T05:39:30.393Z,998.00
2019-01-29T05:40:30.401Z,997.95
2019-01-29T05:41:30.380Z,998.01
2019-01-29T05:42:30.352Z,998.04
2019-01-29T05:43:30.328Z,998.04
2019-01-29T05:44:30.326Z,998.09
2019-01-29T05:45:30.318Z,998.10
2019-01-29T05:46:30.325Z,998.07
2019-01-29T05:47:30.318Z,998.14
2019-01-29T05:48:30.278Z,998.04
2019-01-29T05:49:30.309Z,998.10
2019-01-29T05:50:30.262Z,998.12
2019-01-29T05:51:30.267Z,998.13
2019-01-29T05:52:30.250Z,998.16
2019-01-29T05:53:30.257Z,998.21
2019-01-29T05:54:30.220Z,998.19
2019-01-29T05:55:30.214Z,998.28
2019-01-29T05:56:30.230Z,998.29
2019-01-29T05:57:30.192Z,998.25
2019-01-29T05:58:30.190Z,998.33
2019-01-29T05:59:30.162Z,998.30
2019-01-29T06:00:30.163Z,998.26
2019-01-29T06:01:30.168Z,998.37
2019-01-29T06:02:30.128Z,998.34
2019-01-29T06:03:30.126Z,998.40
2019-01-29T06:04:30.130Z,998.42
2019-01-29T06:05:30.148Z,998.44
2019-01-29T06:06:30.159Z,998.45
2019-01-29T06:07:30.084Z,998.42
2019-01-29T06:08:30.067Z,998.47
2019-01-29T06:09:30.076Z,998.49
2019-01-29T06:10:30.084Z,998.53
2019-01-29T06:11:30.110Z,998.58
2019-01-29T06:12:30.071Z,998.56
2019-01-29T06:13:30.017Z,998.56
2019-01-29T06:14:30.009Z,998.59
2019-01-29T06:15:30.014Z,998.59
2019-01-29T06:16:30.013Z,998.54
2019-01-29T06:17:30.002Z,998.62
2019-01-29T06:18:29.962Z,998.60
2019-01-29T06:19:29.951Z,998.63
2019-01-29T06:20:29.958Z,998.66
2019-01-29T06:21:29.949Z,998.61
2019-01-29T06:22:29.968Z,998.65
2019-01-29T06:23:29.948Z,998.66
2019-01-29T06:24:29.905Z,998.64
2019-01-29T06:25:29.902Z,998.69
2019-01-29T06:26:29.903Z,998.74
2019-01-29T06:27:30.016Z,998.78
2019-01-29T06:28:29.888Z,998.74
2019-01-29T06:29:29.944Z,998.82
2019-01-29T06:30:29.907Z,998.85
2019-01-29T06:31:29.871Z,998.83
2019-01-29T06:32:29.968Z,998.87
2019-01-29T06:33:29.856Z,998.95
2019-01-29T06:34:29.856Z,998.93
2019-01-29T06:35:29.927Z,998.96
2019-01-29T06:36:29.857Z,998.97
2019-01-29T06:37:29.916Z,999.05
2019-01-29T06:38:29.888Z,999.06
2019-01-29T06:39:29.780Z,999.02
2019-01-29T06:40:29.778Z,999.02
2019-01-29T06:41:29.732Z,999.07
2019-01-29T06:42:29.740Z,999.13
2019-01-29T06:43:29.778Z,999.12
2019-01-29T06:44:29.758Z,999.20
2019-01-29T06:45:29.732Z,999.19
2019-01-29T06:47:30.952Z,999.18
2019-01-29T06:48:50.722Z,999.15
2019-01-29T06:49:29.653Z,999.24
2019-01-29T06:50:29.698Z,999.22
2019-01-29T06:51:29.680Z,999.26
2019-01-29T06:52:29.641Z,999.30
2019-01-29T06:53:29.739Z,999.28
2019-01-29T06:54:34.125Z,999.32
2019-01-29T06:55:29.661Z,999.30
2019-01-29T06:56:29.726Z,999.22
2019-01-29T06:57:29.634Z,999.26
2019-01-29T06:58:29.700Z,999.30
2019-01-29T06:59:29.603Z,999.38
2019-01-29T07:00:29.590Z,999.35
2019-01-29T07:02:30.750Z,999.37
2019-01-29T07:03:29.672Z,999.35
2019-01-29T07:05:30.668Z,999.48
2019-01-29T07:06:29.526Z,999.46
2019-01-29T07:07:29.576Z,999.52
2019-01-29T07:08:29.477Z,999.51
2019-01-29T07:10:30.700Z,999.52
2019-01-29T07:11:29.798Z,999.51
2019-01-29T07:12:29.615Z,999.56
2019-01-29T07:13:29.418Z,999.50
2019-01-29T07:14:29.418Z,999.52
2019-01-29T07:15:29.430Z,999.55
2019-01-29T07:16:29.430Z,999.56
2019-01-29T07:17:29.428Z,999.56
2019-01-29T07:18:29.448Z,999.58
2019-01-29T07:19:29.401Z,999.64
2019-01-29T07:20:29.357Z,999.58
2019-01-29T07:21:29.364Z,999.57
2019-01-29T07:22:29.350Z,999.57
2019-01-29T07:23:29.394Z,999.59
2019-01-29T07:24:29.334Z,999.56
2019-01-29T07:25:29.362Z,999.58
2019-01-29T07:27:30.491Z,999.60
2019-01-29T07:28:50.321Z,999.60
2019-01-29T07:29:50.228Z,999.61
2019-01-29T07:30:50.293Z,999.62
2019-01-29T07:31:29.229Z,999.57
2019-01-29T07:32:29.250Z,999.68
2019-01-29T07:33:29.457Z,999.66
2019-01-29T07:35:39.280Z,999.63
2019-01-29T07:36:39.264Z,999.71
2019-01-29T07:37:39.257Z,999.70
2019-01-29T07:38:39.356Z,999.75
2019-01-29T07:39:39.246Z,999.71
2019-01-29T07:40:39.251Z,999.78
2019-01-29T07:41:39.200Z,999.79
2019-01-29T07:42:39.235Z,999.76
2019-01-29T07:43:39.283Z,999.77
2019-01-29T07:44:39.270Z,999.76
2019-01-29T07:45:39.257Z,999.78
2019-01-29T07:46:39.166Z,999.74
2019-01-29T07:47:39.146Z,999.81
2019-01-29T07:48:39.147Z,999.78
2019-01-29T07:49:39.256Z,999.90
2019-01-29T07:50:39.204Z,999.95
2019-01-29T07:52:40.290Z,999.89
2019-01-29T07:53:39.097Z,999.90
2019-01-29T07:54:39.105Z,999.87
2019-01-29T07:56:40.124Z,999.91
2019-01-29T07:57:39.080Z,999.93
2019-01-29T07:58:39.112Z,999.90
2019-01-29T07:59:39.164Z,999.85
2019-01-29T08:00:39.061Z,999.86
2019-01-29T08:02:40.229Z,999.93
2019-01-29T08:03:39.826Z,999.93
2019-01-29T08:04:39.124Z,999.95
2019-01-29T08:05:39.058Z,999.92
2019-01-29T08:07:40.128Z,999.96
2019-01-29T08:08:38.943Z,999.96
2019-01-29T08:09:38.974Z,1000.02
2019-01-29T08:10:38.978Z,999.98
2019-01-29T08:11:38.913Z,1000.04
2019-01-29T08:12:38.933Z,1000.06
2019-01-29T08:13:38.936Z,1000.12
2019-01-29T08:14:38.977Z,1000.10
2019-01-29T08:15:38.913Z,1000.09
2019-01-29T08:16:38.928Z,1000.09
2019-01-29T08:18:40.022Z,1000.16
2019-01-29T08:19:38.947Z,1000.17
2019-01-29T08:20:38.858Z,1000.17
2019-01-29T08:21:38.855Z,1000.19
2019-01-29T08:22:38.791Z,1000.23
2019-01-29T08:24:39.989Z,1000.26
2019-01-29T08:25:47.379Z,1000.24
2019-01-29T08:26:39.901Z,1000.31
2019-01-29T08:27:38.747Z,1000.29
2019-01-29T08:29:39.889Z,1000.37
2019-01-29T08:30:38.905Z,1000.39
2019-01-29T08:31:38.885Z,1000.41
2019-01-29T08:32:38.698Z,1000.35
2019-01-29T08:33:40.726Z,1000.38
2019-01-29T08:34:38.665Z,1000.42
2019-01-29T08:35:38.798Z,1000.41
2019-01-29T08:36:38.773Z,1000.42
2019-01-29T08:37:38.667Z,1000.40
2019-01-29T08:39:39.783Z,1000.41
2019-01-29T08:40:38.635Z,1000.46
2019-01-29T08:41:38.603Z,1000.43
2019-01-29T08:42:38.617Z,1000.47
2019-01-29T08:43:38.588Z,1000.50
2019-01-29T08:44:38.595Z,1000.54
2019-01-29T08:45:41.282Z,1000.46
2019-01-29T08:46:38.540Z,1000.54
2019-01-29T08:48:38.531Z,1000.56
2019-01-29T08:49:38.507Z,1000.56
2019-01-29T08:50:38.534Z,1000.56
2019-01-29T08:51:38.493Z,1000.52
2019-01-29T08:52:38.493Z,1000.60
2019-01-29T08:53:38.539Z,1000.65
2019-01-29T08:54:38.471Z,1000.62
2019-01-29T08:55:38.475Z,1000.65
2019-01-29T08:56:38.439Z,1000.69
2019-01-29T08:57:38.462Z,1000.67
2019-01-29T08:58:38.451Z,1000.70
2019-01-29T08:59:38.415Z,1000.64
2019-01-29T09:00:38.583Z,1000.62
2019-01-29T09:01:38.378Z,1000.64
2019-01-29T09:02:38.449Z,1000.64
2019-01-29T09:03:38.435Z,1000.64
2019-01-29T09:04:38.385Z,1000.62
2019-01-29T09:05:38.402Z,1000.61
2019-01-29T09:06:38.477Z,1000.65
2019-01-29T09:07:38.355Z,1000.66
2019-01-29T09:08:38.387Z,1000.65
2019-01-29T09:09:38.323Z,1000.67
2019-01-29T09:10:38.275Z,1000.65
2019-01-29T09:11:38.312Z,1000.67
2019-01-29T09:12:38.341Z,1000.66
2019-01-29T09:13:38.297Z,1000.68
2019-01-29T09:14:38.289Z,1000.68
2019-01-29T09:15:39.191Z,1000.70
2019-01-29T09:16:38.275Z,1000.66
2019-01-29T09:17:38.383Z,1000.74
2019-01-29T09:18:38.289Z,1000.68
2019-01-29T09:19:38.291Z,1000.70
2019-01-29T09:20:40.191Z,1000.70
2019-01-29T09:21:38.209Z,1000.68
2019-01-29T09:22:38.179Z,1000.73
2019-01-29T09:23:38.254Z,1000.72
2019-01-29T09:24:38.145Z,1000.71
2019-01-29T09:25:38.165Z,1000.76
2019-01-29T09:26:38.190Z,1000.77
2019-01-29T09:27:38.141Z,1000.80
2019-01-29T09:28:42.219Z,1000.81
2019-01-29T09:29:38.161Z,1000.82
2019-01-29T09:30:38.066Z,1000.84
2019-01-29T09:31:38.109Z,1000.85
2019-01-29T09:32:39.763Z,1000.87
2019-01-29T09:33:38.087Z,1000.87
2019-01-29T09:34:38.119Z,1000.87
2019-01-29T09:35:38.041Z,1000.85
2019-01-29T09:36:38.114Z,1000.89
2019-01-29T09:37:38.151Z,1000.93
2019-01-29T09:38:38.061Z,1000.93
2019-01-29T09:39:40.109Z,1000.92
2019-01-29T09:40:40.051Z,1000.91
2019-01-29T09:41:37.993Z,1000.96
2019-01-29T09:42:38.181Z,1000.96
2019-01-29T09:45:39.087Z,1000.98
2019-01-29T09:46:59.003Z,1000.94
2019-01-29T09:47:37.991Z,1001.02
2019-01-29T09:48:37.980Z,1001.02
2019-01-29T09:49:39.957Z,1001.04
2019-01-29T09:50:38.025Z,1001.07
2019-01-29T09:51:37.934Z,1001.02
2019-01-29T09:52:38.121Z,1001.01
2019-01-29T09:53:38.000Z,1001.07
2019-01-29T09:54:37.957Z,1001.02
2019-01-29T09:55:37.917Z,1001.05
2019-01-29T09:56:37.867Z,1001.04
2019-01-29T09:57:37.882Z,1001.05
2019-01-29T09:58:37.941Z,1001.12
2019-01-29T09:59:37.868Z,1001.14
2019-01-29T10:00:37.827Z,1001.14
2019-01-29T10:01:37.897Z,1001.12
2019-01-29T10:02:37.823Z,1001.12
2019-01-29T10:03:37.990Z,1001.15
2019-01-29T10:04:37.789Z,1001.15
2019-01-29T10:05:38.633Z,1001.21
2019-01-29T10:06:37.779Z,1001.16
2019-01-29T10:07:37.777Z,1001.20
2019-01-29T10:08:37.969Z,1001.18
2019-01-29T10:09:37.759Z,1001.19
2019-01-29T10:10:37.655Z,1001.15
2019-01-29T10:11:37.643Z,1001.19
2019-01-29T10:12:37.689Z,1001.20
2019-01-29T10:13:40.210Z,1001.21
2019-01-29T10:14:37.674Z,1001.15
2019-01-29T10:15:37.620Z,1001.16
2019-01-29T10:16:37.627Z,1001.17
2019-01-29T10:17:37.786Z,1001.15
2019-01-29T10:18:37.817Z,1001.25
2019-01-29T10:19:37.829Z,1001.15
2019-01-29T10:20:38.187Z,1001.16
2019-01-29T10:21:37.609Z,1001.13
2019-01-29T10:22:37.605Z,1001.15
2019-01-29T10:23:37.717Z,1001.16
2019-01-29T10:24:37.564Z,1001.11
2019-01-29T10:25:38.232Z,1001.16
2019-01-29T10:26:37.481Z,1001.13
2019-01-29T10:27:37.689Z,1001.14
2019-01-29T10:28:37.617Z,1001.13
2019-01-29T10:29:37.654Z,1001.12
2019-01-29T10:30:37.540Z,1001.06
2019-01-29T10:31:39.519Z,1001.09
2019-01-29T10:32:37.503Z,1001.12
2019-01-29T10:33:37.507Z,1001.07
2019-01-29T10:34:37.571Z,1001.07
2019-01-29T10:35:37.503Z,1001.03
2019-01-29T10:36:37.451Z,1001.11
2019-01-29T10:37:37.433Z,1001.12
2019-01-29T10:38:37.357Z,1001.09
2019-01-29T10:39:39.528Z,1001.03
2019-01-29T10:40:37.438Z,1001.08
2019-01-29T10:41:39.434Z,1001.04
2019-01-29T10:42:37.372Z,1001.05
2019-01-29T10:44:38.625Z,1001.06
2019-01-29T10:45:37.365Z,1001.04
2019-01-29T10:46:37.341Z,1001.05
2019-01-29T10:47:37.409Z,1001.03
2019-01-29T10:49:38.484Z,1001.07
2019-01-29T10:50:37.320Z,1001.07
2019-01-29T10:51:39.326Z,1001.06
2019-01-29T10:52:37.249Z,1001.08
2019-01-29T10:53:39.357Z,1001.10
2019-01-29T10:54:37.300Z,1001.12
2019-01-29T10:55:47.046Z,1001.06
2019-01-29T10:56:38.307Z,1001.03
2019-01-29T10:57:37.201Z,1001.05
2019-01-29T10:58:37.169Z,1001.05
2019-01-29T10:59:37.215Z,1001.03
2019-01-29T11:00:37.191Z,1001.09
2019-01-29T11:01:37.132Z,1001.06
2019-01-29T11:02:37.154Z,1001.03
2019-01-29T11:03:37.205Z,1001.05
2019-01-29T11:05:38.643Z,1001.07
2019-01-29T11:06:37.081Z,1001.08
2019-01-29T11:07:37.083Z,1001.11
2019-01-29T11:08:41.239Z,1001.07
2019-01-29T11:09:38.185Z,1001.09
2019-01-29T11:10:37.096Z,1001.11
2019-01-29T11:11:37.063Z,1001.10
2019-01-29T11:14:04.697Z,1001.05
2019-01-29T11:15:04.676Z,1001.09
2019-01-29T11:16:05.198Z,1001.06
2019-01-29T11:17:04.799Z,1001.04
2019-01-29T11:18:07.728Z,1001.02
2019-01-29T11:20:06.241Z,1001.10
2019-01-29T11:21:25.704Z,1001.04
2019-01-29T11:22:04.613Z,1001.10
2019-01-29T11:25:33.057Z,1001.07
2019-01-29T11:26:32.151Z,1001.05
2019-01-29T11:29:16.999Z,1001.07
2019-01-29T11:31:19.917Z,1001.06
2019-01-29T11:32:16.835Z,1001.05
2019-01-29T11:33:20.731Z,1001.05
2019-01-29T11:34:16.778Z,1001.07
2019-01-29T11:35:20.791Z,1001.02
2019-01-29T11:36:26.636Z,1001.08
2019-01-29T11:39:03.076Z,1001.08
2019-01-29T11:41:03.928Z,1001.09
2019-01-29T11:42:02.999Z,1001.10
2019-01-29T11:43:25.591Z,1001.13
2019-01-29T11:44:06.015Z,1001.14
2019-01-29T11:46:14.577Z,1001.18
2019-01-29T11:47:14.490Z,1001.19
2019-01-29T11:48:14.414Z,1001.20
2019-01-29T11:49:14.498Z,1001.16
2019-01-29T11:50:14.420Z,1001.11
2019-01-29T11:52:24.894Z,1001.11
2019-01-29T11:53:24.778Z,1001.16
2019-01-29T11:54:28.903Z,1001.15
2019-01-29T11:56:51.404Z,1001.20
2019-01-29T11:57:51.358Z,1001.17
2019-01-29T11:58:51.428Z,1001.16
2019-01-29T11:59:51.431Z,1001.14
2019-01-29T12:00:53.464Z,1001.21
2019-01-29T12:01:51.280Z,1001.24
2019-01-29T12:02:53.378Z,1001.21
2019-01-29T12:05:01.702Z,1001.19
2019-01-29T12:06:01.511Z,1001.19
2019-01-29T12:07:51.123Z,1001.18
2019-01-29T12:09:03.250Z,1001.16
2019-01-29T12:10:03.572Z,1001.20
2019-01-29T12:12:29.618Z,1001.16
2019-01-29T12:13:33.617Z,1001.18
2019-01-29T12:14:32.705Z,1001.13
2019-01-29T12:15:30.690Z,1001.17
2019-01-29T12:16:29.518Z,1001.19
2019-01-29T12:18:10.953Z,1001.23
2019-01-29T12:18:33.113Z,1001.21
2019-01-29T12:19:29.472Z,1001.28
2019-01-29T12:20:29.474Z,1001.20
2019-01-29T12:21:45.957Z,1001.29
2019-01-29T12:22:33.476Z,1001.22
2019-01-29T12:23:32.063Z,1001.28
2019-01-29T12:24:29.402Z,1001.21
2019-01-29T12:25:46.909Z,1001.19
2019-01-29T12:28:30.626Z,1001.22
2019-01-29T12:29:29.341Z,1001.15
2019-01-29T12:30:33.437Z,1001.20
2019-01-29T12:32:38.549Z,1001.21
2019-01-29T12:33:50.752Z,1001.21
2019-01-29T12:34:29.380Z,1001.21
2019-01-29T12:36:30.622Z,1001.15
2019-01-29T12:37:29.360Z,1001.15
2019-01-29T12:38:30.327Z,1001.11
2019-01-29T12:39:29.394Z,1001.18
2019-01-29T12:40:32.208Z,1001.18
2019-01-29T12:41:31.341Z,1001.18
2019-01-29T12:44:30.532Z,1001.16
2019-01-29T12:45:58.781Z,1001.11
2019-01-29T12:46:30.379Z,1001.11
2019-01-29T12:47:29.184Z,1001.08
2019-01-29T12:48:31.369Z,1001.11
2019-01-29T12:49:30.270Z,1001.09
2019-01-29T12:50:29.109Z,1001.07
2019-01-29T12:52:30.547Z,1001.07
2019-01-29T12:53:29.278Z,1001.04
2019-01-29T12:54:29.485Z,1001.08
2019-01-29T12:55:29.086Z,1001.06
2019-01-29T12:56:29.092Z,1001.07
2019-01-29T12:57:29.100Z,1001.08
2019-01-29T12:59:30.216Z,1001.07
2019-01-29T13:00:29.022Z,1001.10
2019-01-29T13:01:29.035Z,1001.07
2019-01-29T13:02:29.084Z,1001.08
2019-01-29T13:03:29.095Z,1001.08
2019-01-29T13:04:29.128Z,1001.08
2019-01-29T13:05:32.663Z,1001.09
2019-01-29T13:06:29.156Z,1001.07
2019-01-29T13:07:28.980Z,1001.04
2019-01-29T13:08:28.992Z,1001.07
2019-01-29T13:09:28.976Z,1001.05
2019-01-29T13:10:31.094Z,1001.06
2019-01-29T13:11:31.680Z,1001.05
2019-01-29T13:12:28.948Z,1001.01
2019-01-29T13:13:30.860Z,1001.00
2019-01-29T13:14:28.846Z,1001.03
2019-01-29T13:15:30.895Z,1001.02
2019-01-29T13:16:28.923Z,1001.10
2019-01-29T13:17:28.994Z,1001.08
2019-01-29T13:18:28.838Z,1001.05
2019-01-29T13:19:28.846Z,1001.05
2019-01-29T13:20:28.916Z,1001.03
2019-01-29T13:21:28.866Z,1001.04